Time;durP1;ratioP1;P1;durP2;ratioP2;P2;SDS_P1;SDS_P2;PMS_P1;PMS_P2;Temp;Humidity;BMP_temperature;BMP_pressure;BME280_temperature;BME280_humidity;BME280_pressure;Samples;Min_cycle;Max_cycle;Signal;HPM_P1;HPM_P2
2022/04/09 00:02:26;;;;;;;16.58;2.97;;;4.60;99.90;;;;;;5049267;28;20049;-44
2022/04/09 00:04:52;;;;;;;21.65;2.78;;;4.60;99.90;;;;;;5043375;28;20224;-43
2022/04/09 00:07:19;;;;;;;16.35;2.50;;;4.70;99.90;;;;;;5052003;28;20124;-43
2022/04/09 00:09:46;;;;;;;17.58;2.28;;;4.70;99.90;;;;;;5044063;28;20061;-45
2022/04/09 00:12:14;;;;;;;14.38;2.40;;;4.60;99.90;;;;;;5045469;28;20119;-43
2022/04/09 00:14:41;;;;;;;13.05;2.33;;;4.60;99.90;;;;;;5051623;28;20147;-43
2022/04/09 00:17:09;;;;;;;12.45;2.17;;;4.70;99.90;;;;;;5051722;28;20052;-43
2022/04/09 00:19:36;;;;;;;19.00;3.25;;;4.60;99.90;;;;;;5046174;28;20037;-44
2022/04/09 00:22:03;;;;;;;16.60;2.40;;;4.60;99.90;;;;;;5051052;28;20044;-43
2022/04/09 00:24:29;;;;;;;10.90;2.05;;;4.60;99.90;;;;;;5052798;28;20087;-43
2022/04/09 00:26:56;;;;;;;9.80;2.05;;;4.60;99.90;;;;;;5051661;28;20490;-44
2022/04/09 00:29:24;;;;;;;14.77;2.50;;;4.60;99.90;;;;;;5033900;28;20057;-43
2022/04/09 00:31:51;;;;;;;12.45;2.05;;;4.50;99.90;;;;;;5042755;28;20063;-43
2022/04/09 00:34:18;;;;;;;17.17;2.28;;;4.50;99.90;;;;;;5053296;28;20053;-44
2022/04/09 00:36:44;;;;;;;12.95;2.22;;;4.50;99.90;;;;;;5048411;28;20053;-43
2022/04/09 00:39:11;;;;;;;7.80;1.98;;;4.50;99.90;;;;;;5050820;28;20140;-44
2022/04/09 00:41:40;;;;;;;14.77;2.40;;;4.50;99.90;;;;;;5051130;28;20052;-43
2022/04/09 00:44:15;;;;;;;13.57;2.10;;;4.50;99.90;;;;;;5037219;28;20452;-43
2022/04/09 00:46:43;;;;;;;16.25;2.35;;;4.50;99.90;;;;;;5039231;28;20057;-43
2022/04/09 00:49:10;;;;;;;14.27;2.25;;;4.40;99.90;;;;;;5035685;28;20111;-44
2022/04/09 00:51:38;;;;;;;10.75;2.40;;;4.50;99.90;;;;;;5035860;28;20140;-42
2022/04/09 00:54:05;;;;;;;15.00;2.72;;;4.50;99.90;;;;;;5039564;28;20481;-43
2022/04/09 00:56:31;;;;;;;15.57;2.28;;;4.50;99.90;;;;;;5051470;28;20500;-42
2022/04/09 00:58:58;;;;;;;16.63;2.70;;;4.50;99.90;;;;;;5046800;28;20081;-43
2022/04/09 01:01:27;;;;;;;12.65;2.30;;;4.50;99.90;;;;;;5042500;28;20607;-43
2022/04/09 01:03:55;;;;;;;15.23;2.40;;;4.50;99.90;;;;;;5039487;28;20135;-43
2022/04/09 01:06:22;;;;;;;11.63;2.35;;;4.50;99.90;;;;;;5046243;28;20071;-44
2022/04/09 01:08:48;;;;;;;14.75;2.60;;;4.50;99.90;;;;;;5037728;28;20048;-44
2022/04/09 01:11:15;;;;;;;16.27;2.67;;;4.50;99.90;;;;;;5050744;28;20063;-44
2022/04/09 01:13:42;;;;;;;16.10;2.58;;;4.50;99.90;;;;;;5052304;28;20084;-45
2022/04/09 01:16:09;;;;;;;18.30;2.33;;;4.50;99.90;;;;;;5040624;28;20084;-43
2022/04/09 01:18:35;;;;;;;13.85;2.45;;;4.50;99.90;;;;;;5040850;28;20077;-43
2022/04/09 01:21:04;;;;;;;17.42;2.70;;;4.40;99.90;;;;;;5036637;28;20398;-43
2022/04/09 01:23:32;;;;;;;15.98;2.35;;;4.40;99.90;;;;;;5046911;28;20482;-43
2022/04/09 01:26:00;;;;;;;17.40;2.20;;;4.50;99.90;;;;;;5047209;28;20127;-44
2022/04/09 01:28:27;;;;;;;11.73;2.28;;;4.50;99.90;;;;;;5036417;28;20049;-44
2022/04/09 01:30:54;;;;;;;17.45;3.05;;;4.50;99.90;;;;;;5039108;28;20412;-43
2022/04/09 01:33:21;;;;;;;15.00;2.53;;;4.50;99.90;;;;;;5050490;28;20146;-43
2022/04/09 01:35:48;;;;;;;11.15;2.30;;;4.50;99.90;;;;;;5050191;28;20061;-43
2022/04/09 01:38:15;;;;;;;8.65;2.13;;;4.50;99.90;;;;;;5049181;28;20063;-44
2022/04/09 01:40:43;;;;;;;13.80;2.15;;;4.50;99.90;;;;;;5034729;28;20053;-43
2022/04/09 01:43:10;;;;;;;16.02;2.63;;;4.60;99.90;;;;;;5032770;28;20049;-43
2022/04/09 01:45:37;;;;;;;14.77;2.47;;;4.60;99.90;;;;;;5046102;28;20132;-43
2022/04/09 01:48:04;;;;;;;12.05;2.33;;;4.60;99.90;;;;;;5048231;28;20128;-43
2022/04/09 01:50:32;;;;;;;9.63;1.67;;;4.50;99.90;;;;;;5043564;28;20085;-43
2022/04/09 01:52:59;;;;;;;14.95;2.45;;;4.60;99.90;;;;;;5043842;28;20056;-44
2022/04/09 01:55:25;;;;;;;11.63;1.85;;;4.50;99.90;;;;;;5043392;28;20046;-44
2022/04/09 01:57:53;;;;;;;14.30;2.15;;;4.50;99.90;;;;;;5032196;28;20136;-43
2022/04/09 02:00:20;;;;;;;15.00;2.53;;;4.50;99.90;;;;;;5035439;28;20692;-43
2022/04/09 02:02:47;;;;;;;12.10;2.00;;;4.40;99.90;;;;;;5040826;28;20052;-43
2022/04/09 02:05:14;;;;;;;12.35;2.38;;;4.40;99.90;;;;;;5049046;28;20274;-43
2022/04/09 02:07:41;;;;;;;14.30;2.40;;;4.40;99.90;;;;;;5038123;28;20077;-44
2022/04/09 02:10:09;;;;;;;8.68;2.38;;;4.30;99.90;;;;;;5051811;28;20532;-44
2022/04/09 02:12:36;;;;;;;12.52;2.20;;;4.30;99.90;;;;;;5049496;28;20103;-43
2022/04/09 02:15:05;;;;;;;13.40;2.63;;;4.30;99.90;;;;;;5044142;28;20466;-43
2022/04/09 02:17:32;;;;;;;14.07;2.22;;;4.20;99.90;;;;;;5045535;28;20049;-44
2022/04/09 02:19:58;;;;;;;8.07;2.20;;;4.20;99.90;;;;;;5045757;28;20137;-44
2022/04/09 02:22:26;;;;;;;14.77;2.75;;;4.20;99.90;;;;;;5051920;28;20071;-44
2022/04/09 02:24:53;;;;;;;11.07;2.05;;;4.10;99.90;;;;;;5050959;28;20512;-44
2022/04/09 02:27:20;;;;;;;13.30;1.95;;;4.10;99.90;;;;;;5048810;28;20073;-43
2022/04/09 02:29:47;;;;;;;8.07;1.60;;;4.10;99.90;;;;;;5041128;28;20052;-42
2022/04/09 02:32:15;;;;;;;8.18;1.70;;;4.00;99.90;;;;;;5051836;28;20484;-43
2022/04/09 02:34:41;;;;;;;8.80;1.55;;;4.00;99.90;;;;;;5049892;28;20165;-43
2022/04/09 02:37:08;;;;;;;9.55;2.00;;;4.00;99.90;;;;;;5043335;28;20053;-43
2022/04/09 02:39:35;;;;;;;13.93;1.67;;;3.90;99.90;;;;;;5051721;28;20049;-43
2022/04/09 02:42:02;;;;;;;11.82;1.90;;;3.90;99.90;;;;;;5037142;28;20057;-42
2022/04/09 02:44:30;;;;;;;10.07;1.95;;;3.90;99.90;;;;;;5054212;28;20059;-43
2022/04/09 02:46:57;;;;;;;13.45;1.60;;;3.90;99.90;;;;;;5047592;28;20080;-43
2022/04/09 02:49:25;;;;;;;11.88;1.48;;;3.80;99.90;;;;;;5045134;28;20525;-42
2022/04/09 02:51:51;;;;;;;8.15;1.50;;;3.90;99.90;;;;;;5035584;28;20056;-43
2022/04/09 02:54:18;;;;;;;7.60;1.52;;;3.80;99.90;;;;;;5046008;28;20474;-43
2022/04/09 02:56:46;;;;;;;4.45;1.40;;;3.80;99.90;;;;;;5039277;28;20053;-43
2022/04/09 02:59:13;;;;;;;9.40;1.38;;;3.80;99.90;;;;;;5048905;28;20128;-42
2022/04/09 03:01:40;;;;;;;8.27;1.50;;;3.80;99.90;;;;;;5053319;28;20183;-40
2022/04/09 03:04:08;;;;;;;10.00;1.50;;;3.80;99.90;;;;;;5054333;28;20099;-39
2022/04/09 03:06:36;;;;;;;12.57;1.65;;;3.80;99.90;;;;;;5048554;28;20100;-43
2022/04/09 03:09:03;;;;;;;12.23;2.00;;;3.80;99.90;;;;;;5054794;28;20055;-44
2022/04/09 03:11:29;;;;;;;9.95;1.23;;;3.80;99.90;;;;;;5037678;28;20048;-42
2022/04/09 03:13:56;;;;;;;9.15;1.65;;;3.80;99.90;;;;;;5042419;28;20049;-40
2022/04/09 03:16:23;;;;;;;8.30;1.73;;;3.80;99.90;;;;;;5035311;28;20054;-40
2022/04/09 03:18:49;;;;;;;9.70;1.83;;;3.80;99.90;;;;;;5041736;28;20048;-42
2022/04/09 03:21:16;;;;;;;10.43;1.77;;;3.80;99.90;;;;;;5051104;28;20056;-43
2022/04/09 03:23:44;;;;;;;7.80;1.35;;;3.80;99.90;;;;;;5044999;28;20053;-42
2022/04/09 03:26:11;;;;;;;12.57;1.90;;;3.80;99.90;;;;;;5053253;28;20396;-41
2022/04/09 03:28:38;;;;;;;12.23;2.35;;;3.80;99.90;;;;;;5052849;28;20057;-42
2022/04/09 03:31:05;;;;;;;10.50;1.65;;;3.80;99.90;;;;;;5045672;28;20049;-42
2022/04/09 03:33:32;;;;;;;10.55;1.77;;;3.80;99.90;;;;;;5043597;28;20049;-42
2022/04/09 03:35:59;;;;;;;9.30;1.38;;;3.80;99.90;;;;;;5045844;28;20068;-42
2022/04/09 03:38:25;;;;;;;9.05;1.65;;;3.80;99.90;;;;;;5037942;28;20417;-42
2022/04/09 03:40:53;;;;;;;9.75;1.52;;;3.80;99.90;;;;;;5043732;28;20051;-41
2022/04/09 03:43:20;;;;;;;6.80;1.40;;;3.80;99.90;;;;;;5053304;28;20072;-41
2022/04/09 03:45:47;;;;;;;8.10;1.38;;;3.70;99.90;;;;;;5039462;28;20132;-42
2022/04/09 03:48:14;;;;;;;7.63;1.42;;;3.70;99.90;;;;;;5046193;28;20041;-40
2022/04/09 03:50:40;;;;;;;12.45;2.00;;;3.70;99.90;;;;;;5054250;28;20041;-43
2022/04/09 03:53:07;;;;;;;9.38;1.75;;;3.70;99.90;;;;;;5069695;28;20140;-42
2022/04/09 03:55:34;;;;;;;9.82;1.35;;;3.70;99.90;;;;;;5043242;28;20051;-41
2022/04/09 03:58:02;;;;;;;10.82;1.67;;;3.70;99.90;;;;;;5053075;28;20135;-40
2022/04/09 04:00:29;;;;;;;10.80;1.60;;;3.80;99.90;;;;;;5049849;28;20055;-43
2022/04/09 04:02:57;;;;;;;10.68;1.50;;;3.80;99.90;;;;;;5053766;28;20049;-43
2022/04/09 04:05:23;;;;;;;12.88;2.05;;;3.80;99.90;;;;;;5044441;28;20561;-40
2022/04/09 04:07:51;;;;;;;9.40;2.00;;;3.80;99.90;;;;;;5049239;28;20080;-41
2022/04/09 04:10:18;;;;;;;7.68;1.98;;;3.80;99.90;;;;;;5047452;28;20049;-43
2022/04/09 04:12:44;;;;;;;9.75;1.65;;;3.80;99.90;;;;;;5034011;28;20045;-42
2022/04/09 04:15:14;;;;;;;12.50;2.10;;;3.80;99.90;;;;;;5042760;28;20050;-41
2022/04/09 04:17:41;;;;;;;6.35;2.10;;;3.80;99.90;;;;;;5048163;28;20040;-42
2022/04/09 04:20:09;;;;;;;12.98;2.85;;;3.80;99.90;;;;;;5046632;28;20072;-42
2022/04/09 04:22:36;;;;;;;9.30;1.70;;;3.70;99.90;;;;;;5050840;28;20059;-41
2022/04/09 04:25:03;;;;;;;10.63;1.67;;;3.80;99.90;;;;;;5035140;28;20049;-43
2022/04/09 04:27:29;;;;;;;9.15;1.67;;;3.70;99.90;;;;;;5041933;28;20045;-41
2022/04/09 04:29:59;;;;;;;7.03;1.27;;;3.70;99.90;;;;;;5052379;28;20055;-43
2022/04/09 04:32:27;;;;;;;10.88;1.63;;;3.70;99.90;;;;;;5050115;28;20120;-42
2022/04/09 04:34:53;;;;;;;9.23;1.45;;;3.70;99.90;;;;;;5044175;28;20061;-42
2022/04/09 04:37:20;;;;;;;10.05;1.60;;;3.60;99.90;;;;;;5047961;28;20049;-41
2022/04/09 04:39:47;;;;;;;9.02;1.38;;;3.60;99.90;;;;;;5048964;28;20520;-40
2022/04/09 04:42:14;;;;;;;8.25;1.60;;;3.60;99.90;;;;;;5033719;28;20041;-42
2022/04/09 04:44:40;;;;;;;7.85;1.33;;;3.60;99.90;;;;;;5037495;28;20051;-42
2022/04/09 04:47:07;;;;;;;5.10;1.63;;;3.50;99.90;;;;;;5045216;28;20501;-41
2022/04/09 04:49:35;;;;;;;2.95;1.30;;;3.50;99.90;;;;;;5039941;28;20136;-40
2022/04/09 04:52:03;;;;;;;8.05;1.80;;;3.50;99.90;;;;;;5050840;28;20076;-42
2022/04/09 04:54:30;;;;;;;3.72;1.10;;;3.50;99.90;;;;;;5049828;28;20056;-40
2022/04/09 04:56:57;;;;;;;7.32;2.08;;;3.50;99.90;;;;;;5045859;28;20513;-45
2022/04/09 04:59:23;;;;;;;7.55;1.42;;;3.50;99.90;;;;;;5044408;28;20056;-43
2022/04/09 05:01:50;;;;;;;9.02;1.80;;;3.50;99.90;;;;;;5044992;28;20045;-46
2022/04/09 05:04:17;;;;;;;6.50;1.63;;;3.50;99.90;;;;;;5037834;28;20080;-46
2022/04/09 05:06:45;;;;;;;7.38;1.50;;;3.50;99.90;;;;;;5045811;28;20136;-45
2022/04/09 05:09:13;;;;;;;9.88;1.50;;;3.50;99.90;;;;;;5049035;28;20386;-45
2022/04/09 05:11:39;;;;;;;13.57;2.00;;;3.50;99.90;;;;;;5044178;28;20128;-44
2022/04/09 05:14:07;;;;;;;10.02;1.58;;;3.60;99.90;;;;;;5043707;28;20051;-45
2022/04/09 05:16:33;;;;;;;9.90;1.92;;;3.60;99.90;;;;;;5051287;28;20494;-41
2022/04/09 05:19:00;;;;;;;11.65;2.25;;;3.60;99.90;;;;;;5040985;28;20049;-43
2022/04/09 05:21:27;;;;;;;12.23;1.73;;;3.60;99.90;;;;;;5051883;28;20056;-43
2022/04/09 05:23:55;;;;;;;12.65;1.95;;;3.70;99.90;;;;;;5042305;28;20055;-43
2022/04/09 05:26:21;;;;;;;16.83;1.77;;;3.60;99.90;;;;;;5036725;28;20048;-45
2022/04/09 05:28:52;;;;;;;11.40;1.70;;;3.70;99.90;;;;;;5052076;28;20427;-43
2022/04/09 05:31:20;;;;;;;8.13;1.77;;;3.70;99.90;;;;;;5045187;28;20041;-42
2022/04/09 05:33:47;;;;;;;11.23;2.28;;;3.70;99.90;;;;;;5049825;28;20052;-42
2022/04/09 05:36:13;;;;;;;11.65;2.05;;;3.70;99.90;;;;;;5045465;28;20489;-44
2022/04/09 05:38:40;;;;;;;9.45;1.70;;;3.70;99.90;;;;;;5039478;28;20051;-45
2022/04/09 05:41:08;;;;;;;11.50;1.90;;;3.70;99.90;;;;;;5040941;28;20133;-44
2022/04/09 05:43:35;;;;;;;11.52;2.22;;;3.80;99.90;;;;;;5052143;28;20037;-44
2022/04/09 05:46:01;;;;;;;10.48;1.80;;;3.80;99.90;;;;;;5049924;28;20822;-43
2022/04/09 05:48:28;;;;;;;13.77;1.70;;;3.90;99.90;;;;;;5051720;28;20048;-44
2022/04/09 05:50:55;;;;;;;13.43;2.05;;;4.00;99.90;;;;;;5048074;28;20037;-45
2022/04/09 05:53:21;;;;;;;7.13;1.48;;;4.10;99.90;;;;;;5038953;28;20136;-44
2022/04/09 05:55:48;;;;;;;11.25;2.03;;;4.30;99.90;;;;;;5048624;28;20508;-44
2022/04/09 05:58:16;;;;;;;15.65;2.30;;;4.40;99.90;;;;;;5050520;28;20053;-44
2022/04/09 06:00:43;;;;;;;12.18;1.75;;;4.50;99.90;;;;;;5044635;28;20052;-44
2022/04/09 06:03:10;;;;;;;10.77;1.95;;;4.50;99.90;;;;;;5041408;28;20081;-42
2022/04/09 06:05:37;;;;;;;15.60;1.80;;;4.50;99.90;;;;;;5040978;28;20060;-43
2022/04/09 06:08:04;;;;;;;11.13;1.70;;;4.50;99.90;;;;;;5051369;28;20053;-42
2022/04/09 06:10:32;;;;;;;9.77;1.98;;;4.50;99.90;;;;;;5045637;28;20442;-41
2022/04/09 06:12:59;;;;;;;9.63;1.63;;;4.50;99.90;;;;;;5047220;28;20082;-42
2022/04/09 06:15:27;;;;;;;10.10;1.90;;;4.50;99.90;;;;;;5048430;28;20131;-43
2022/04/09 06:17:53;;;;;;;9.80;1.67;;;4.50;99.90;;;;;;5041247;28;20057;-44
2022/04/09 06:20:20;;;;;;;15.13;1.55;;;4.50;99.90;;;;;;5054582;28;20055;-42
2022/04/09 06:22:47;;;;;;;9.90;1.67;;;4.60;99.90;;;;;;5050174;28;20053;-43
2022/04/09 06:25:13;;;;;;;15.48;2.30;;;4.60;99.90;;;;;;5053304;28;20063;-44
2022/04/09 06:27:41;;;;;;;13.88;1.98;;;4.60;99.90;;;;;;5055837;28;20053;-44
2022/04/09 06:30:09;;;;;;;18.58;2.40;;;4.70;99.90;;;;;;5054430;28;20045;-43
2022/04/09 06:32:38;;;;;;;13.30;2.33;;;4.80;99.90;;;;;;5054794;28;20087;-44
2022/04/09 06:35:06;;;;;;;16.60;2.60;;;4.90;99.90;;;;;;5048800;28;20057;-44
2022/04/09 06:37:33;;;;;;;19.95;2.33;;;5.00;99.90;;;;;;5055217;28;20045;-42
2022/04/09 06:40:00;;;;;;;14.20;2.45;;;5.10;99.90;;;;;;5047389;28;20084;-44
2022/04/09 06:42:27;;;;;;;15.45;2.47;;;5.30;99.90;;;;;;5048546;28;20400;-44
2022/04/09 06:44:54;;;;;;;10.32;2.28;;;5.40;99.90;;;;;;5054443;28;20106;-44
2022/04/09 06:47:21;;;;;;;14.10;2.53;;;5.50;99.90;;;;;;5053568;28;20084;-43
2022/04/09 06:49:49;;;;;;;20.13;2.90;;;5.60;99.90;;;;;;5050291;28;20465;-43
2022/04/09 06:52:16;;;;;;;15.80;2.10;;;5.80;99.90;;;;;;5042649;28;20045;-43
2022/04/09 06:54:43;;;;;;;13.18;2.42;;;5.80;99.90;;;;;;5041278;28;20060;-43
2022/04/09 06:57:10;;;;;;;13.10;2.50;;;6.00;99.90;;;;;;5053733;28;20052;-44
2022/04/09 06:59:37;;;;;;;10.25;2.20;;;6.10;99.90;;;;;;5052489;28;20420;-43
2022/04/09 07:02:04;;;;;;;24.00;2.70;;;6.20;99.90;;;;;;5058939;28;20059;-44
2022/04/09 07:04:30;;;;;;;19.65;2.58;;;6.40;99.90;;;;;;5059832;28;20091;-44
2022/04/09 07:06:59;;;;;;;13.10;2.45;;;6.40;99.90;;;;;;5058613;28;20481;-44
2022/04/09 07:09:26;;;;;;;12.43;2.55;;;6.40;99.90;;;;;;5058932;28;20478;-44
2022/04/09 07:11:53;;;;;;;15.23;2.85;;;6.40;99.90;;;;;;5053007;28;20052;-43
2022/04/09 07:14:20;;;;;;;9.77;1.60;;;6.40;99.90;;;;;;5051075;28;20052;-43
2022/04/09 07:16:47;;;;;;;9.75;2.50;;;6.40;99.90;;;;;;5053779;28;20124;-44
2022/04/09 07:19:14;;;;;;;9.25;2.20;;;6.40;99.90;;;;;;5054656;28;20052;-43
2022/04/09 07:21:41;;;;;;;8.38;2.08;;;6.40;99.90;;;;;;5051150;28;20060;-43
2022/04/09 07:24:09;;;;;;;8.30;1.63;;;6.50;99.90;;;;;;5046820;28;20533;-44
2022/04/09 07:26:36;;;;;;;13.15;2.92;;;6.60;99.90;;;;;;5050651;28;20077;-44
2022/04/09 07:29:02;;;;;;;11.55;2.40;;;6.70;99.90;;;;;;5050832;28;20049;-44
2022/04/09 07:31:29;;;;;;;17.33;2.80;;;6.80;99.90;;;;;;5051778;28;20056;-43
2022/04/09 07:33:56;;;;;;;11.88;1.63;;;7.00;99.90;;;;;;5051635;28;20065;-44
2022/04/09 07:36:23;;;;;;;15.80;2.35;;;7.10;99.90;;;;;;5048440;28;20092;-44
2022/04/09 07:38:49;;;;;;;14.75;2.47;;;7.20;99.90;;;;;;5047461;28;20393;-43
2022/04/09 07:41:17;;;;;;;17.58;2.60;;;7.30;99.90;;;;;;5049478;28;20071;-44
2022/04/09 07:43:44;;;;;;;13.25;2.50;;;7.40;99.90;;;;;;5050323;28;20085;-44
2022/04/09 07:46:11;;;;;;;15.80;2.33;;;7.50;99.90;;;;;;5064967;28;20512;-42
2022/04/09 07:48:37;;;;;;;9.25;2.08;;;7.50;99.90;;;;;;5047732;28;20055;-43
2022/04/09 07:51:04;;;;;;;10.80;1.80;;;7.70;99.90;;;;;;5052401;28;20075;-44
2022/04/09 07:53:31;;;;;;;11.38;2.55;;;7.80;99.90;;;;;;5052511;28;20131;-44
2022/04/09 07:55:58;;;;;;;14.55;2.03;;;7.90;99.90;;;;;;5039827;28;20280;-43
2022/04/09 07:58:26;;;;;;;14.27;2.05;;;8.00;99.90;;;;;;5039366;28;20048;-43
2022/04/09 08:00:53;;;;;;;13.30;1.60;;;8.10;99.90;;;;;;5052240;28;20147;-43
2022/04/09 08:03:19;;;;;;;9.57;1.50;;;8.10;99.90;;;;;;5053103;28;20053;-44
2022/04/09 08:05:46;;;;;;;10.77;2.22;;;8.20;99.90;;;;;;5052249;28;20136;-44
2022/04/09 08:08:13;;;;;;;15.23;1.85;;;8.20;99.90;;;;;;5048251;28;20127;-44
2022/04/09 08:10:39;;;;;;;12.25;1.83;;;8.30;99.90;;;;;;5046854;28;20041;-43
2022/04/09 08:13:06;;;;;;;14.98;2.08;;;8.40;99.90;;;;;;5052447;28;20060;-44
2022/04/09 08:15:34;;;;;;;11.98;2.30;;;8.50;99.90;;;;;;5050121;28;20056;-44
2022/04/09 08:18:03;;;;;;;7.50;1.45;;;8.50;99.90;;;;;;5052664;28;20045;-43
2022/04/09 08:20:30;;;;;;;15.25;2.08;;;8.70;99.90;;;;;;5043503;28;20089;-43
2022/04/09 08:22:57;;;;;;;7.28;1.33;;;8.70;99.90;;;;;;5054952;28;20075;-43
2022/04/09 08:25:23;;;;;;;12.68;1.80;;;8.80;99.90;;;;;;5052208;28;20059;-43
2022/04/09 08:27:52;;;;;;;11.82;1.75;;;8.90;99.90;;;;;;5050780;28;20118;-45
2022/04/09 08:30:19;;;;;;;9.05;1.33;;;9.00;99.90;;;;;;5049040;28;20447;-43
2022/04/09 08:32:49;;;;;;;18.38;2.22;;;9.10;99.90;;;;;;5046068;28;20485;-43
2022/04/09 08:35:16;;;;;;;12.52;2.03;;;9.10;99.90;;;;;;5051969;28;20493;-43
2022/04/09 08:37:42;;;;;;;12.93;2.33;;;9.00;99.90;;;;;;5042941;28;20143;-42
2022/04/09 08:40:13;;;;;;;11.18;1.88;;;8.90;99.90;;;;;;5048254;28;20049;-43
2022/04/09 08:42:39;;;;;;;7.38;1.73;;;8.80;99.90;;;;;;5048306;28;20052;-43
2022/04/09 08:45:07;;;;;;;14.35;1.80;;;8.80;99.90;;;;;;5063616;28;20049;-46
2022/04/09 08:47:35;;;;;;;13.30;2.10;;;8.90;99.90;;;;;;5050676;28;20059;-43
2022/04/09 08:50:03;;;;;;;9.88;1.30;;;9.10;99.90;;;;;;5046830;28;20110;-43
2022/04/09 08:52:30;;;;;;;6.55;1.10;;;9.20;99.90;;;;;;5049572;28;20051;-42
2022/04/09 08:54:58;;;;;;;8.27;1.35;;;9.20;99.90;;;;;;5049493;28;20049;-43
2022/04/09 08:57:25;;;;;;;9.38;1.77;;;9.30;99.90;;;;;;5050743;28;20098;-43
2022/04/09 08:59:54;;;;;;;7.18;1.48;;;9.50;99.90;;;;;;5049499;28;20524;-43
2022/04/09 09:02:21;;;;;;;15.13;1.45;;;9.60;99.90;;;;;;5047404;28;21232;-42
2022/04/09 09:04:47;;;;;;;7.25;1.48;;;9.70;99.90;;;;;;5049060;28;20049;-43
2022/04/09 09:07:20;;;;;;;10.68;1.60;;;9.70;99.90;;;;;;5046030;28;20049;-44
2022/04/09 09:09:46;;;;;;;9.38;2.03;;;9.70;99.90;;;;;;5046182;28;20049;-42
2022/04/09 09:12:14;;;;;;;14.90;1.30;;;9.80;99.90;;;;;;5050925;28;20424;-44
2022/04/09 09:14:45;;;;;;;6.63;1.38;;;9.90;99.90;;;;;;5048707;28;20082;-44
2022/04/09 09:17:12;;;;;;;6.17;1.00;;;10.00;99.90;;;;;;5047657;28;20053;-42
2022/04/09 09:19:42;;;;;;;15.52;1.73;;;10.00;99.90;;;;;;5049882;28;20055;-41
2022/04/09 09:22:09;;;;;;;8.73;1.63;;;10.00;99.90;;;;;;5044551;28;20120;-42
2022/04/09 09:24:37;;;;;;;16.00;1.77;;;10.00;99.90;;;;;;5047902;28;20055;-43
2022/04/09 09:27:05;;;;;;;7.20;1.40;;;10.00;99.90;;;;;;5050983;28;20055;-43
2022/04/09 09:29:32;;;;;;;8.00;1.60;;;10.10;99.90;;;;;;5042656;28;20059;-43
2022/04/09 09:32:00;;;;;;;9.80;1.55;;;10.00;99.90;;;;;;5049721;28;20045;-43
2022/04/09 09:34:26;;;;;;;10.10;1.35;;;10.10;99.90;;;;;;5045494;28;20140;-42
2022/04/09 09:36:53;;;;;;;9.18;1.75;;;10.20;99.90;;;;;;5049197;28;20063;-40
2022/04/09 09:39:21;;;;;;;9.20;1.65;;;10.20;99.60;;;;;;5048535;28;20434;-43
2022/04/09 09:41:51;;;;;;;10.38;1.83;;;10.20;99.40;;;;;;5041148;28;20056;-42
2022/04/09 09:44:18;;;;;;;10.45;2.22;;;10.20;99.10;;;;;;5049156;28;20055;-42
2022/04/09 09:46:46;;;;;;;14.63;2.08;;;10.20;99.60;;;;;;5052493;28;20055;-43
2022/04/09 09:49:13;;;;;;;11.57;1.92;;;10.30;99.30;;;;;;5046199;28;20049;-42
2022/04/09 09:51:40;;;;;;;8.43;1.70;;;10.50;99.30;;;;;;5050087;28;20045;-43
2022/04/09 09:54:07;;;;;;;9.73;1.40;;;10.60;97.70;;;;;;5043755;28;20073;-43
2022/04/09 09:56:36;;;;;;;10.13;1.38;;;10.50;96.80;;;;;;5047578;28;20080;-43
2022/04/09 09:59:06;;;;;;;13.75;1.50;;;10.50;96.80;;;;;;5041959;28;20049;-44
2022/04/09 10:01:35;;;;;;;9.90;1.73;;;10.60;97.30;;;;;;5045616;28;20053;-43
2022/04/09 10:04:02;;;;;;;15.52;1.48;;;10.60;96.90;;;;;;5051458;28;20067;-43
2022/04/09 10:06:29;;;;;;;12.68;1.75;;;10.60;96.70;;;;;;5052786;28;20077;-44
2022/04/09 10:08:56;;;;;;;10.73;2.03;;;10.50;96.80;;;;;;5044121;28;20736;-44
2022/04/09 10:11:22;;;;;;;7.40;1.23;;;10.30;97.30;;;;;;5043287;28;20051;-45
2022/04/09 10:13:49;;;;;;;7.82;1.35;;;10.00;97.80;;;;;;5038351;28;20053;-42
2022/04/09 10:16:20;;;;;;;8.35;1.33;;;9.70;98.50;;;;;;5048838;28;20061;-39
2022/04/09 10:18:47;;;;;;;9.25;1.30;;;9.50;99.50;;;;;;5050027;28;20053;-41
2022/04/09 10:21:14;;;;;;;6.95;1.33;;;9.40;99.90;;;;;;5046673;28;20480;-41
2022/04/09 10:23:41;;;;;;;7.28;1.50;;;9.50;99.90;;;;;;5051424;28;20049;-41
2022/04/09 10:26:07;;;;;;;10.15;3.00;;;9.50;99.70;;;;;;5040910;28;20143;-41
2022/04/09 10:28:36;;;;;;;9.75;3.25;;;9.50;99.50;;;;;;5055223;28;20489;-41
2022/04/09 10:31:03;;;;;;;12.07;3.58;;;9.50;99.50;;;;;;5034894;28;20046;-43
2022/04/09 10:33:36;;;;;;;9.38;2.50;;;9.80;99.40;;;;;;5042638;28;20053;-42
2022/04/09 10:36:03;;;;;;;8.63;2.22;;;10.10;99.40;;;;;;5046357;28;20049;-43
2022/04/09 10:38:29;;;;;;;4.18;0.95;;;10.30;99.30;;;;;;5053950;28;20091;-43
2022/04/09 10:41:27;;;;;;;9.18;1.45;;;10.40;98.90;;;;;;5057317;28;20110;-43
2022/04/09 10:43:57;;;;;;;11.43;1.63;;;10.40;98.30;;;;;;5047711;28;20053;-42
2022/04/09 10:46:35;;;;;;;10.15;1.67;;;10.20;99.10;;;;;;5054506;28;20045;-41
2022/04/09 10:49:25;;;;;;;7.45;1.75;;;10.10;99.50;;;;;;5045955;28;20477;-42
2022/04/09 10:52:16;;;;;;;8.63;1.30;;;9.80;99.80;;;;;;5047220;28;20053;-40
2022/04/09 10:55:34;;;;;;;7.40;1.77;;;9.30;99.90;;;;;;5050432;28;20135;-42
2022/04/09 10:58:01;;;;;;;4.28;1.00;;;8.90;99.90;;;;;;5053622;28;20481;-43
2022/04/09 11:00:37;;;;;;;8.20;1.60;;;8.50;99.90;;;;;;5053884;28;20071;-42
2022/04/09 11:03:31;;;;;;;6.78;1.45;;;8.10;99.90;;;;;;5049682;28;20073;-44
2022/04/09 11:06:40;;;;;;;6.80;1.00;;;7.90;99.90;;;;;;5042044;28;20080;-44
2022/04/09 11:09:07;;;;;;;5.22;0.95;;;7.80;99.90;;;;;;5052559;28;20048;-43
2022/04/09 11:11:34;;;;;;;5.38;1.10;;;7.60;99.90;;;;;;5037025;28;20063;-42
2022/04/09 11:14:01;;;;;;;6.22;1.00;;;7.60;99.90;;;;;;5054877;28;20489;-42
2022/04/09 11:16:34;;;;;;;3.85;0.85;;;7.60;99.90;;;;;;5037669;28;20080;-42
2022/04/09 11:19:01;;;;;;;3.90;1.08;;;7.80;99.90;;;;;;5045467;28;20064;-43
2022/04/09 11:21:30;;;;;;;7.03;1.10;;;8.00;99.90;;;;;;5052011;28;20056;-44
2022/04/09 11:24:07;;;;;;;8.20;1.15;;;8.30;99.90;;;;;;5053291;28;20080;-44
2022/04/09 11:26:34;;;;;;;6.10;1.50;;;8.50;99.90;;;;;;5053514;28;20139;-44
2022/04/09 11:29:09;;;;;;;8.20;1.88;;;8.80;99.90;;;;;;5053949;28;20527;-43
2022/04/09 11:31:45;;;;;;;13.20;1.75;;;9.10;99.90;;;;;;5052696;28;20512;-43
2022/04/09 11:34:12;;;;;;;11.60;1.92;;;9.30;99.90;;;;;;5052398;28;20064;-43
2022/04/09 11:36:40;;;;;;;14.48;1.92;;;9.50;99.90;;;;;;5048193;28;20041;-44
2022/04/09 11:39:07;;;;;;;10.80;1.80;;;9.60;99.90;;;;;;5051195;28;20041;-43
2022/04/09 11:41:33;;;;;;;11.60;1.63;;;9.70;99.90;;;;;;5051924;28;20055;-45
2022/04/09 11:44:00;;;;;;;17.20;1.90;;;9.60;99.90;;;;;;5045997;28;20401;-44
2022/04/09 11:46:32;;;;;;;10.55;1.85;;;9.50;99.90;;;;;;5052762;28;20044;-43
2022/04/09 11:49:01;;;;;;;10.70;1.83;;;9.50;99.90;;;;;;5051423;28;20103;-44
2022/04/09 11:51:28;;;;;;;7.15;1.48;;;9.40;99.90;;;;;;5052214;28;20126;-43
2022/04/09 11:54:15;;;;;;;18.42;2.38;;;9.40;99.90;;;;;;5041242;28;20132;-45
2022/04/09 11:56:42;;;;;;;14.85;2.25;;;9.40;99.90;;;;;;5057631;28;20420;-44
2022/04/09 11:59:12;;;;;;;13.02;2.22;;;9.60;99.90;;;;;;5054214;28;20059;-44
2022/04/09 12:01:38;;;;;;;10.00;1.88;;;9.80;99.90;;;;;;5051931;28;20047;-44
2022/04/09 12:04:05;;;;;;;6.85;1.83;;;10.10;99.90;;;;;;5053383;28;20067;-43
2022/04/09 12:06:32;;;;;;;9.25;1.20;;;10.20;99.90;;;;;;5048569;28;20059;-44
2022/04/09 12:08:58;;;;;;;9.20;1.63;;;10.40;99.90;;;;;;5045824;28;20052;-44
2022/04/09 12:11:26;;;;;;;6.03;1.40;;;10.50;99.90;;;;;;5045059;28;20045;-43
2022/04/09 12:13:53;;;;;;;10.13;1.40;;;10.60;99.90;;;;;;5051834;28;20049;-44
2022/04/09 12:16:20;;;;;;;6.90;1.70;;;10.60;99.90;;;;;;5051624;28;20045;-44
2022/04/09 12:18:47;;;;;;;8.07;1.88;;;10.60;99.90;;;;;;5054327;28;20059;-44
2022/04/09 12:21:18;;;;;;;5.57;1.33;;;10.70;99.90;;;;;;5059136;28;20080;-43
2022/04/09 12:23:45;;;;;;;9.18;1.42;;;10.80;99.90;;;;;;5052939;28;20044;-44
2022/04/09 12:26:22;;;;;;;10.15;1.58;;;11.00;99.90;;;;;;5052866;28;20044;-44
2022/04/09 12:29:08;;;;;;;7.70;1.40;;;11.00;99.50;;;;;;5053558;28;20471;-43
2022/04/09 12:31:35;;;;;;;4.80;1.05;;;10.80;99.80;;;;;;5049807;28;20389;-43
2022/04/09 12:34:02;;;;;;;5.63;1.30;;;10.50;99.50;;;;;;5049827;28;20049;-45
2022/04/09 12:36:28;;;;;;;6.20;1.40;;;10.30;99.40;;;;;;5036480;28;20049;-43
2022/04/09 12:38:55;;;;;;;8.38;1.13;;;10.10;99.30;;;;;;5047033;28;20053;-44
2022/04/09 12:41:22;;;;;;;2.60;0.80;;;9.90;99.30;;;;;;5049047;28;20463;-43
2022/04/09 12:43:52;;;;;;;6.97;1.05;;;9.70;99.90;;;;;;5046410;28;20053;-43
2022/04/09 12:46:19;;;;;;;3.72;1.08;;;9.60;99.70;;;;;;5050543;28;20120;-43
2022/04/09 12:48:46;;;;;;;2.80;0.90;;;9.60;99.80;;;;;;5037893;28;20077;-43
2022/04/09 12:51:14;;;;;;;4.30;1.00;;;9.60;99.90;;;;;;5036902;28;20049;-44
2022/04/09 12:53:41;;;;;;;3.42;1.13;;;9.60;99.90;;;;;;5048951;28;20587;-43
2022/04/09 12:56:09;;;;;;;3.83;0.95;;;9.80;99.90;;;;;;5050757;28;20488;-43